Aviation Digital Data Service (ADDS)

Output produced by METARs form (0239 UTC 21 August 2017)
found at http://aviationweather.gov/adds/metars/
 
KDAG 210150Z AUTO 26012KT 10SM CLR 35/04 A2979 RMK AO2 SLP058 T03500044
KDAG 202320Z 2100/2124 16009G17KT P6SM SKC 
     FM210200 24011KT P6SM FEW130 
     FM211500 VRB06KT P6SM SCT120 
     FM211800 12008G16KT P6SM SCT120
       
KEDW 210158Z AUTO 24017KT 10SM CLR 32/05 A2983 RMK AO2 SLP077 T03200053
TAF KEDW 210159Z 2102/2208 24015G25KT 9999 FEW100 510009 QNH2982INS 
     TEMPO 2102/2105 21020G30KT 520009 
     BECMG 2105/2106 20009KT 9999 SKC QNH2990INS 
     BECMG 2117/2118 22012G18KT 9999 FEW100 QNH2995INS 
     BECMG 2121/2122 24015G25KT 9999 SCT090 QNH2991INS 
     BECMG 2203/2204 20009KT 9999 FEW120 QNH2984INS TX36/2120Z TN15/2112Z
       
KVCV 210235Z AUTO 19018G26KT 10SM CLR 28/04 A2991 RMK AO2
KONT 210153Z 25012KT 10SM CLR 24/16 A2987 RMK AO2 SLP103 T02390156
KONT 202337Z 2100/2206 26011KT P6SM SKC 
     FM210500 VRB04KT P6SM SKC 
     FM211000 VRB02KT 6SM BR BKN012 
     FM211700 VRB04KT P6SM SCT018 
     FM212000 25011KT P6SM SKC 
     FM220500 VRB04KT P6SM SKC
       
KNID 210156Z AUTO 19008KT 10SM CLR 36/M02 A2981 RMK AO2 SLP071 T03611022 $
KSNA 210153Z 18009KT 10SM FEW016 21/16 A2989 RMK AO2 SLP121 T02110161
KSNA 202337Z 2100/2124 22009KT P6SM SCT022 
     FM210300 VRB04KT P6SM SCT020 
     FM210500 VRB03KT P6SM OVC019 
     FM211730 VRB04KT P6SM SCT025 
     FM211900 22009KT P6SM SKC
       
KSAN 210151Z 21008KT 10SM BKN023 22/16 A2991 RMK AO2 SLP129 T02170156
KSAN 210134Z 2102/2206 23009KT P6SM BKN022 
     FM210300 VRB03KT P6SM OVC020 
     FM211730 VRB04KT P6SM SCT025 
     FM211900 29009KT P6SM FEW025 
     FM220200 VRB04KT P6SM BKN020
       
KNXP 210156Z AUTO 19012KT 10SM CLR 34/03 A2989 RMK AO2 SLP082 T03390028 $
TAF KNXP 2021/2121 14010KT 9999 SKC QNH2985INS 
     TEMPO 2021/2103 20010G20KT 
     BECMG 2104/2106 VRB05KT 9999 FEW200 QNH2994INS T37/2022Z T24/2113Z
       
KPSP 210153Z 31015G22KT 10SM CLR 37/09 A2973 RMK AO2 SLP065 T03670089
KPSP 202337Z 2100/2124 12007KT P6SM SKC 
     FM210100 33011G19KT P6SM SKC 
     FM210600 VRB06KT P6SM SKC
       
KLAX 210220Z 26010KT 10SM SCT016 20/16 A2990 RMK AO2 T02000161
KLAX 210106Z 2101/2206 26012KT P6SM BKN015 
     TEMPO 2101/2104 SCT015 
     FM210400 26010KT P6SM SCT015 
     FM210700 VRB03KT P6SM OVC015 
     FM211800 26008KT P6SM FEW020 
     FM212100 26012KT P6SM SKC 
     FM220500 25006KT P6SM FEW015
       
KCNO 210153Z 26014KT 10SM CLR 24/16 A2988 RMK AO2 SLP114 T02390161
KSMO 210151Z 24007G14KT 10SM FEW013 20/17 A2989 RMK AO2 SLP120 T02000167
KSMO 202332Z 2100/2124 24009KT P6SM SKC 
     FM210400 VRB03KT P6SM FEW015 
     FM210800 VRB03KT P6SM OVC015 
     FM211800 21006KT P6SM FEW020 
     FM212000 24010KT P6SM SKC
       
KLGB 210153Z 31009KT 10SM CLR 22/16 A2989 RMK AO2 SLP120 T02170161
KLGB 202332Z 2100/2124 28008KT P6SM SKC 
     FM210600 VRB03KT P6SM OVC018 
     FM211800 20008KT P6SM SKC
       
KVNY 210151Z 14009KT 10SM CLR 23/15 A2987 RMK AO2 SLP107 T02280150 $
KVNY 202332Z 2100/2124 15010KT P6SM SKC 
     FM210400 VRB03KT P6SM SKC 
     FM211200 VRB03KT P6SM OVC012 
     FM211630 VRB03KT P6SM SKC 
     FM211900 15009KT P6SM SKC
       
KBUR 210153Z 18011KT 10SM CLR 22/15 A2988 RMK AO2 SLP107 T02170150
KBUR 202332Z 2100/2124 18010KT P6SM SKC 
     FM210300 13006KT P6SM SKC 
     FM211200 VRB03KT 5SM HZ OVC012 
     FM211630 VRB03KT P6SM SKC 
     FM211900 16009KT P6SM SKC
       
KBFL 210154Z 35009KT 10SM CLR 35/15 A2976 RMK AO2 SLP068 T03500150
KBFL 202320Z 2100/2124 33012G17KT P6SM SKC 
     FM210500 35007KT P6SM SKC 
     FM211800 31009G15KT P6SM SKC
       
KPMD 210153Z AUTO 21015KT 10SM CLR 30/07 A2988 RMK AO2 PK WND 22028/0055 SLP091 T03000067
KPMD 202332Z 2100/2124 25017G25KT P6SM SKC 
     FM210300 23012KT P6SM SKC 
     FM210700 VRB03KT P6SM SKC 
     FM212000 23012KT P6SM SKC 
     FM212200 25017G25KT P6SM SKC
       
KOXR 210151Z 25006KT 10SM CLR 19/14 A2988 RMK AO2 SLP119 T01940139 $
KOXR 202332Z 2100/2124 25010KT P6SM SCT018 
     FM210400 25006KT P6SM OVC015 
     FM210600 VRB03KT P6SM OVC015 
     FM212000 25010KT P6SM FEW018
       
KWJF 210156Z 25012KT 10SM CLR 29/08 A2988 RMK AO2 SLP096 T02940083 $
KWJF 202332Z 2100/2124 23018G25KT P6SM SKC 
     FM210300 24012KT P6SM SKC 
     FM211100 24007KT P6SM SKC 
     FM212000 25018G25KT P6SM SKC
       
KCMA 210155Z 21007KT 10SM CLR 21/15 A2989 RMK AO2 SLP128 T02060150
KCMA 202332Z 2100/2124 22010KT P6SM FEW020 
     FM210400 VRB03KT P6SM OVC015 
     FM211900 23009KT P6SM SKC
       
KFAT 210153Z 30010KT 6SM HZ FEW080 SCT150 BKN200 33/14 A2976 RMK AO2 SLP074 HZ FU ALQDS MTNS OBSC DSNT N-E-SE T03330144
KFAT 202320Z 2100/2124 30009KT P6SM FEW150 
     FM211500 VRB04KT P6SM SKC
       
KEED 210156Z AUTO 21011KT 10SM CLR 40/01 A2974 RMK AO2 SLP033 T04000011
KEED 202320Z 2100/2124 21011G16KT P6SM SCT130 
     FM210300 22008KT P6SM BKN120 
     FM211000 24005KT P6SM -SHRA BKN100 OVC250 
     FM211600 16010KT P6SM BKN250
       
KLSV 210158Z AUTO 14016KT 10SM CLR 38/06 A2978 RMK AO2 SLP057 T03750064 $
TAF AMD KLSV 210052Z 2100/2205 17009KT 9999 FEW150 QNH2979INS 
     TEMPO 2101/2104 23015G25KT 
     BECMG 2110/2111 VRB06KT 9999 SCT120 QNH2989INS 
     BECMG 2116/2117 08009KT 9999 SCT100 BKN160 QNH2994INS 
     BECMG 2120/2121 13009KT 9999 VCSH SCT100 BKN160 QNH2990INS 
     TEMPO 2121/2124 17015G25KT 9000 -SHRA 
     BECMG 2200/2201 13009KT 9999 NSW SCT120 BKN150 QNH2991INS TX38/2101Z TN25/2112Z
       
KLAS 210156Z 13007KT 10SM BKN130 BKN160 37/06 A2981 RMK AO2 SLP064 T03670061
KLAS 210147Z 2102/2206 15011KT P6SM BKN130 
     FM210400 21009KT P6SM SCT110 BKN130 
     FM211200 VRB06KT P6SM BKN100 
     PROB30 2112/2118 -SHRA OVC090 
     FM211800 11007KT P6SM VCTS BKN100CB OVC250 
     FM212200 17006KT P6SM VCTS BKN100CB OVC250 
     FM220400 23005KT P6SM SCT110 BKN250
       
KHII 210215Z AUTO 20007KT 10SM CLR 38/09 A2974 RMK AO2
KIFP 210235Z AUTO 19007KT 10SM CLR 39/04 A2974 RMK AO2
KIFP 202320Z 2100/2124 19010KT P6SM BKN120 
     FM211000 VRB06KT P6SM -SHRA BKN110 
     FM211900 24006KT P6SM BKN120